Vicki B — WD12776 — position and weather

sailwx.info

Track history (hours):
 
Tides and Currents Weather Stations Pressure Air Temp Water Temp Dewpoint Dewpoint Depression Visibility Wind Speed Wind Dir Waves Ship Positions

Vicki B

Last reported at 2017-Oct-19 16:00 UTC. Time now 2017-Oct-19 16:27 UTC.
Position N 45°44' W 122°50'.

Type: Towing. MMSI: 367681630.

Date/timePositionNaut miles runAvg speedWind from/ knotsBaromVisibWave heightAir tempDewpointWater temp
2017-Oct-19 16:00N 45°44' W 122°50'2 3.7
2017-Oct-19 15:30N 45°46' W 122°49'2 4.0
2017-Oct-19 15:01N 45°48' W 122°48'1 2.9
2017-Oct-19 14:30N 45°48' W 122°50'0 0.7
2017-Oct-19 13:52N 45°48' W 122°51'0 0.0
2017-Oct-19 13:30N 45°48' W 122°51'0 0.0
2017-Oct-19 13:00N 45°48' W 122°51'0 0.0
2017-Oct-19 12:31N 45°48' W 122°51'0 0.0
2017-Oct-19 12:01N 45°48' W 122°51'0 0.0
2017-Oct-19 11:30N 45°48' W 122°51'0 0.0
2017-Oct-19 11:00N 45°48' W 122°51'0 0.1
2017-Oct-19 10:30N 45°48' W 122°51'2 3.4
2017-Oct-19 09:57N 45°49' W 122°49'3 6.0
2017-Oct-19 09:31N 45°51' W 122°47'4 7.6
2017-Oct-19 09:00N 45°48' W 122°47'4 8.1
2017-Oct-19 08:30N 45°44' W 122°46'4 8.3
2017-Oct-19 08:00N 45°39' W 122°46'3 6.7
2017-Oct-19 07:30N 45°36' W 122°47'3 6.1
2017-Oct-19 07:00N 45°34' W 122°44'0 0.1
2017-Oct-19 06:30N 45°34' W 122°44'0 0.0
2017-Oct-19 06:01N 45°34' W 122°44'0 0.0
2017-Oct-19 05:30N 45°34' W 122°44'0 0.0
2017-Oct-19 04:51N 45°34' W 122°44'0 0.0
2017-Oct-19 04:30N 45°34' W 122°44'0 0.0
2017-Oct-19 04:00N 45°34' W 122°44'0 0.0
2017-Oct-19 03:30N 45°34' W 122°44'0 0.0
2017-Oct-19 03:00N 45°34' W 122°44'2 3.7
2017-Oct-19 02:30N 45°35' W 122°46'3 5.0
2017-Oct-19 01:59N 45°37' W 122°48'2 5.0
2017-Oct-19 01:30N 45°39' W 122°50'2 4.8
2017-Oct-19 01:00N 45°41' W 122°52'3 5.0
2017-Oct-19 00:30N 45°44' W 122°52'2 4.4
2017-Oct-19 00:00N 45°45' W 122°49'3 0.6
2017-Oct-18 18:55N 45°48' W 122°49'0 0.1
2017-Oct-18 18:30N 45°48' W 122°49'1 1.4
2017-Oct-18 18:00N 45°49' W 122°50'3 5.7
2017-Oct-18 17:30N 45°52' W 122°48'4 7.2
2017-Oct-18 17:00N 45°48' W 122°47'4 8.2
2017-Oct-18 16:30N 45°44' W 122°46'5 8.1
2017-Oct-18 15:52N 45°39' W 122°46'3 6.4
2017-Oct-18 15:26N 45°36' W 122°47'3 7.4
2017-Oct-18 15:00N 45°34' W 122°44'0 0.1
2017-Oct-18 14:01N 45°34' W 122°44'0 0.0
2017-Oct-18 13:31N 45°34' W 122°44'0 0.0
2017-Oct-18 13:01N 45°34' W 122°44'0 0.0
2017-Oct-18 12:31N 45°34' W 122°44'0 0.0
2017-Oct-18 12:01N 45°34' W 122°44'0 0.0
2017-Oct-18 11:31N 45°34' W 122°44'0 0.0
2017-Oct-18 11:00N 45°34' W 122°44'0 0.0
2017-Oct-18 10:30N 45°34' W 122°44'2 4.5
2017-Oct-18 10:01N 45°35' W 122°46'3 5.3
2017-Oct-18 09:30N 45°37' W 122°48'4 5.0
2017-Oct-18 08:48N 45°40' W 122°51'2 4.6
2017-Oct-18 08:18N 45°42' W 122°52'1 4.5
2017-Oct-18 08:00N 45°44' W 122°52'2 3.8
2017-Oct-18 07:30N 45°45' W 122°50'2 3.5
2017-Oct-18 07:00N 45°46' W 122°49'2 3.4
2017-Oct-18 06:30N 45°48' W 122°49'1 2.2
2017-Oct-18 05:51N 45°48' W 122°51'0 0.2
2017-Oct-18 05:30N 45°48' W 122°51'0 0.0
2017-Oct-18 05:00N 45°48' W 122°51'0 0.0
2017-Oct-18 04:30N 45°48' W 122°51'0 0.0
2017-Oct-18 04:00N 45°48' W 122°51'0 0.0
2017-Oct-18 03:30N 45°48' W 122°51'0 0.0
2017-Oct-18 03:00N 45°48' W 122°51'1 1.0
2017-Oct-18 02:31N 45°48' W 122°50'2 4.7
2017-Oct-18 02:01N 45°50' W 122°49'1 1.7
2017-Oct-18 01:30N 45°50' W 122°47'4 7.7
2017-Oct-18 01:00N 45°46' W 122°46'4 7.4
2017-Oct-18 00:30N 45°43' W 122°46'3 6.8
2017-Oct-18 00:00N 45°39' W 122°45'1 2.8
2017-Oct-17 23:29N 45°39' W 122°44'0 0.0
2017-Oct-17 23:00N 45°39' W 122°44'0 0.0
2017-Oct-17 22:31N 45°39' W 122°44'0 0.0
2017-Oct-17 22:01N 45°39' W 122°44'0 0.0
2017-Oct-17 21:30N 45°39' W 122°44'0 0.0
2017-Oct-17 21:00N 45°39' W 122°44'0 0.0
2017-Oct-17 20:30N 45°39' W 122°44'0 0.0
2017-Oct-17 20:01N 45°39' W 122°44'2 3.2
2017-Oct-17 19:30N 45°39' W 122°46'2 4.9
2017-Oct-17 19:01N 45°42' W 122°46'2 4.8
2017-Oct-17 18:30N 45°44' W 122°46'2 4.7
2017-Oct-17 18:01N 45°47' W 122°46'2 4.6
2017-Oct-17 17:30N 45°49' W 122°48'2 4.5
2017-Oct-17 17:00N 45°51' W 122°47'1 2.1
2017-Oct-17 16:30N 45°50' W 122°48'1 3.0
2017-Oct-17 16:00N 45°49' W 122°50'1 2.6
2017-Oct-17 15:31N 45°48' W 122°50'0 0.7
2017-Oct-17 15:00N 45°48' W 122°51'0 0.0
2017-Oct-17 14:30N 45°48' W 122°51'0 0.0
2017-Oct-17 14:00N 45°48' W 122°51'0 0.0
2017-Oct-17 13:30N 45°48' W 122°51'0 0.0
2017-Oct-17 13:00N 45°48' W 122°51'0 0.0
2017-Oct-17 12:30N 45°48' W 122°51'0 0.0
2017-Oct-17 12:00N 45°48' W 122°51'0 0.0
2017-Oct-17 11:30N 45°48' W 122°51'0 0.0
2017-Oct-17 11:00N 45°48' W 122°51'0 0.0
2017-Oct-17 10:30N 45°48' W 122°51'0 0.0
2017-Oct-17 10:00N 45°48' W 122°51'0 0.0
2017-Oct-17 09:30N 45°48' W 122°51'0 0.0
2017-Oct-17 09:00N 45°48' W 122°51'0 0.0
2017-Oct-17 08:30N 45°48' W 122°51'0 0.0
2017-Oct-17 08:00N 45°48' W 122°51'0 0.0
2017-Oct-17 07:30N 45°48' W 122°51'0 0.1
2017-Oct-17 07:00N 45°48' W 122°51'2 3.9
2017-Oct-17 06:30N 45°49' W 122°49'3 5.3
2017-Oct-17 06:00N 45°52' W 122°48'4 7.8
2017-Oct-17 05:30N 45°48' W 122°47'4 8.2
2017-Oct-17 05:00N 45°44' W 122°46'4 8.1
2017-Oct-17 04:30N 45°40' W 122°46'4 8.0
2017-Oct-17 04:00N 45°37' W 122°41'4 8.3
2017-Oct-17 03:30N 45°36' W 122°35'4 7.7
2017-Oct-17 03:00N 45°35' W 122°30'3 5.3
2017-Oct-17 02:30N 45°34' W 122°27'0 0.0
2017-Oct-17 02:00N 45°34' W 122°27'0 0.0
2017-Oct-17 01:30N 45°34' W 122°27'0 0.0
2017-Oct-17 01:00N 45°34' W 122°27'0 0.0
2017-Oct-17 00:30N 45°34' W 122°27'0 0.0
2017-Oct-17 00:00N 45°34' W 122°27'0 0.0
2017-Oct-16 23:30N 45°34' W 122°27'2 2.9
2017-Oct-16 22:55N 45°35' W 122°29'2 5.0
2017-Oct-16 22:30N 45°35' W 122°32'2 5.0
2017-Oct-16 22:00N 45°36' W 122°35'3 5.4
2017-Oct-16 21:30N 45°37' W 122°39'3 5.2
2017-Oct-16 21:00N 45°38' W 122°42'2 3.6
2017-Oct-16 20:30N 45°39' W 122°44'3 5.2
2017-Oct-16 20:00N 45°41' W 122°46'3 5.3
2017-Oct-16 19:30N 45°44' W 122°46'3 5.0
2017-Oct-16 19:00N 45°46' W 122°46'2 4.8
2017-Oct-16 18:30N 45°48' W 122°47'2 4.5
2017-Oct-16 18:00N 45°50' W 122°47'2 4.1
2017-Oct-16 17:30N 45°53' W 122°48'2 4.9
2017-Oct-16 17:00N 45°50' W 122°49'2 4.4
2017-Oct-16 16:30N 45°48' W 122°50'1 1.8
2017-Oct-16 16:00N 45°48' W 122°51'2 0.1
2017-Oct-15 23:57N 45°49' W 122°49'3 5.5
2017-Oct-15 23:30N 45°52' W 122°47'4 7.1
2017-Oct-15 23:00N 45°48' W 122°47'3 6.8
2017-Oct-15 22:30N 45°45' W 122°46'3 6.5
2017-Oct-15 22:00N 45°42' W 122°46'3 6.2
2017-Oct-15 21:30N 45°39' W 122°44'1 1.0
2017-Oct-15 21:00N 45°39' W 122°44'0 0.0
2017-Oct-15 20:30N 45°39' W 122°44'0 0.0
2017-Oct-15 20:00N 45°39' W 122°44'0 0.0
2017-Oct-15 19:24N 45°39' W 122°44'0 0.0
2017-Oct-15 19:00N 45°39' W 122°44'0 0.0
2017-Oct-15 18:30N 45°39' W 122°44'0 0.0
2017-Oct-15 18:00N 45°39' W 122°44'0 0.0
2017-Oct-15 17:30N 45°39' W 122°44'1 2.9
2017-Oct-15 17:00N 45°39' W 122°45'2 4.7
2017-Oct-15 16:30N 45°42' W 122°46'2 4.6
2017-Oct-15 16:00N 45°44' W 122°46'2 4.7
2017-Oct-15 15:30N 45°46' W 122°46'2 4.7
2017-Oct-15 15:00N 45°48' W 122°47'4 3.3
2017-Oct-15 13:54N 45°52' W 122°48'2 6.2
2017-Oct-15 13:30N 45°50' W 122°49'2 3.8
2017-Oct-15 13:00N 45°48' W 122°50'1 1.3
2017-Oct-15 12:30N 45°48' W 122°51'0 0.0
2017-Oct-15 12:00N 45°48' W 122°51'0 0.0
2017-Oct-15 11:30N 45°48' W 122°51'0 0.0
2017-Oct-15 11:00N 45°48' W 122°51'0 0.0
2017-Oct-15 10:30N 45°48' W 122°51'0 0.0
2017-Oct-15 10:00N 45°48' W 122°51'0 0.0
2017-Oct-15 09:30N 45°48' W 122°51'0 0.0
2017-Oct-15 09:01N 45°48' W 122°51'0 0.0
2017-Oct-15 08:30N 45°48' W 122°51'0 0.0
2017-Oct-15 08:01N 45°48' W 122°51'0 0.0
2017-Oct-15 07:30N 45°48' W 122°51'0 0.0
2017-Oct-15 07:00N 45°48' W 122°51'0 0.0
2017-Oct-15 06:30N 45°48' W 122°51'0 0.1
2017-Oct-15 06:00N 45°48' W 122°51'2 4.8
2017-Oct-15 05:30N 45°50' W 122°49'1 2.6
2017-Oct-15 05:00N 45°50' W 122°47'12 7.8
2017-Oct-15 03:26N 45°39' W 122°44'0 0.0
2017-Oct-15 03:00N 45°39' W 122°44'0 0.0
2017-Oct-15 02:30N 45°39' W 122°44'0 0.0
2017-Oct-15 01:40N 45°39' W 122°44'0 0.0
2017-Oct-15 01:20N 45°39' W 122°44'0 0.0
2017-Oct-15 01:00N 45°39' W 122°44'0 0.0
2017-Oct-15 00:30N 45°39' W 122°44'0 0.0
2017-Oct-15 00:00N 45°39' W 122°44'0 0.0
2017-Oct-14 23:30N 45°39' W 122°44'2 3.0
2017-Oct-14 22:54N 45°40' W 122°46'2 5.1
2017-Oct-14 22:30N 45°42' W 122°46'3 5.3
2017-Oct-14 22:00N 45°44' W 122°46'3 5.6
2017-Oct-14 21:30N 45°47' W 122°47'3 5.8
2017-Oct-14 21:00N 45°50' W 122°47'1 1.5
2017-Oct-14 20:30N 45°51' W 122°48'2 4.8
2017-Oct-14 20:00N 45°48' W 122°49'1 2.3
2017-Oct-14 19:30N 45°48' W 122°51'0 0.1
2017-Oct-14 19:00N 45°48' W 122°51'0 0.0
2017-Oct-14 18:30N 45°48' W 122°51'0 0.0
2017-Oct-14 18:00N 45°48' W 122°51'0 0.0
2017-Oct-14 17:30N 45°48' W 122°51'0 0.1
2017-Oct-14 17:00N 45°48' W 122°51'2 3.8
2017-Oct-14 16:30N 45°49' W 122°49'3 5.8
2017-Oct-14 16:00N 45°52' W 122°48'5 9.3
2017-Oct-14 15:30N 45°47' W 122°47'1 2.7
2017-Oct-14 15:00N 45°46' W 122°46'4 8.2
2017-Oct-14 14:30N 45°42' W 122°46'3 7.0
2017-Oct-14 14:00N 45°38' W 122°47'3 6.6
2017-Oct-14 13:30N 45°35' W 122°46'2 3.6
2017-Oct-14 13:01N 45°34' W 122°44'0 0.0
2017-Oct-14 12:31N 45°34' W 122°44'0 0.0
2017-Oct-14 12:01N 45°34' W 122°44'0 0.0
2017-Oct-14 11:30N 45°34' W 122°44'0 0.0
2017-Oct-14 11:01N 45°34' W 122°44'0 0.0
2017-Oct-14 10:30N 45°34' W 122°44'0 0.0
2017-Oct-14 10:00N 45°34' W 122°44'0 0.0
2017-Oct-14 09:31N 45°34' W 122°44'0 0.0
2017-Oct-14 09:00N 45°34' W 122°44'0 0.2
2017-Oct-14 08:30N 45°34' W 122°44'1 2.8
2017-Oct-14 08:01N 45°35' W 122°45'3 5.6
2017-Oct-14 07:30N 45°37' W 122°48'3 5.2
2017-Oct-14 07:01N 45°39' W 122°50'3 5.0
2017-Oct-14 06:30N 45°41' W 122°52'3 5.4
2017-Oct-14 06:00N 45°44' W 122°51'2 4.5
2017-Oct-14 05:30N 45°46' W 122°49'3 5.1
2017-Oct-14 05:00N 45°48' W 122°48'2 3.2
2017-Oct-14 04:27N 45°48' W 122°51'0 0.2
2017-Oct-14 04:00N 45°48' W 122°51'0 0.0
2017-Oct-14 03:21N 45°48' W 122°51'0 0.0
2017-Oct-14 03:00N 45°48' W 122°51'0 0.0
2017-Oct-14 02:30N 45°48' W 122°51'0 0.0
2017-Oct-14 02:00N 45°48' W 122°51'0 0.0
2017-Oct-14 01:30N 45°48' W 122°51'0 0.0
2017-Oct-14 01:00N 45°48' W 122°51'0 0.0
2017-Oct-14 00:30N 45°48' W 122°51'0 0.0
2017-Oct-14 00:00N 45°48' W 122°51'0 0.0
2017-Oct-13 23:30N 45°48' W 122°51'2 4.5
2017-Oct-13 23:00N 45°50' W 122°49'2 3.6
2017-Oct-13 22:30N 45°51' W 122°47'4 7.2
2017-Oct-13 22:00N 45°47' W 122°47'6 7.7
2017-Oct-13 21:16N 45°41' W 122°46'2 7.3
2017-Oct-13 21:00N 45°40' W 122°46'3 6.6
2017-Oct-13 20:30N 45°36' W 122°47'3 6.7
2017-Oct-13 20:01N 45°34' W 122°44'0 0.8
2017-Oct-13 19:30N 45°34' W 122°44'0 0.0
2017-Oct-13 19:01N 45°34' W 122°44'0 0.0
2017-Oct-13 18:30N 45°34' W 122°44'0 0.0
2017-Oct-13 18:00N 45°34' W 122°44'0 0.0
2017-Oct-13 17:30N 45°34' W 122°44'0 0.0
2017-Oct-13 17:01N 45°34' W 122°44'0 0.0
2017-Oct-13 16:31N 45°34' W 122°44'0 0.0
2017-Oct-13 16:01N 45°34' W 122°44'1 2.6
2017-Oct-13 15:30N 45°35' W 122°45'3 5.3
2017-Oct-13 15:01N 45°37' W 122°47'2 4.8
2017-Oct-13 14:31N 45°38' W 122°49'3 4.6
2017-Oct-13 13:51N 45°41' W 122°52'2 4.6
2017-Oct-13 13:30N 45°42' W 122°52'3 3.9
2017-Oct-13 12:50N 45°45' W 122°50'1 3.5
2017-Oct-13 12:30N 45°46' W 122°49'2 3.7
2017-Oct-13 11:56N 45°48' W 122°48'1 2.8
2017-Oct-13 11:31N 45°48' W 122°50'1 1.6
2017-Oct-13 11:01N 45°48' W 122°51'0 0.0
2017-Oct-13 10:30N 45°48' W 122°51'0 0.0
2017-Oct-13 10:00N 45°48' W 122°51'0 0.0
2017-Oct-13 09:15N 45°48' W 122°51'0 0.0
2017-Oct-13 09:00N 45°48' W 122°51'0 0.0
2017-Oct-13 08:31N 45°48' W 122°51'1 2.3
2017-Oct-13 07:53N 45°49' W 122°50'2 5.9
2017-Oct-13 07:30N 45°51' W 122°48'2 3.3
2017-Oct-13 06:59N 45°49' W 122°48'4 7.5
2017-Oct-13 06:30N 45°46' W 122°46'4 7.3
2017-Oct-13 05:55N 45°41' W 122°46'3 6.5
2017-Oct-13 05:31N 45°39' W 122°45'1 2.0
2017-Oct-13 05:01N 45°39' W 122°44'0 0.0
2017-Oct-13 04:30N 45°39' W 122°44'0 0.0
2017-Oct-13 04:00N 45°39' W 122°44'0 0.0
2017-Oct-13 03:30N 45°39' W 122°44'0 0.0
2017-Oct-13 03:00N 45°39' W 122°44'0 0.0
2017-Oct-13 02:21N 45°39' W 122°44'0 0.0
2017-Oct-13 02:00N 45°39' W 122°44'0 0.0
2017-Oct-13 01:30N 45°39' W 122°44'0 0.5
2017-Oct-13 01:00N 45°39' W 122°44'2 4.4
2017-Oct-13 00:30N 45°40' W 122°46'2 4.8
2017-Oct-13 00:00N 45°43' W 122°46'2 4.8
2017-Oct-12 23:30N 45°45' W 122°46'2 4.9
2017-Oct-12 23:00N 45°47' W 122°47'2 4.7
2017-Oct-12 22:30N 45°50' W 122°47'2 3.0
2017-Oct-12 22:00N 45°51' W 122°48'3 6.1
2017-Oct-12 21:30N 45°49' W 122°50'1 2.4
2017-Oct-12 21:00N 45°48' W 122°51'0 0.1
2017-Oct-12 20:30N 45°48' W 122°51'0 0.0
2017-Oct-12 20:00N 45°48' W 122°51'0 0.0
2017-Oct-12 19:30N 45°48' W 122°51'0 0.0
2017-Oct-12 19:00N 45°48' W 122°51'0 0.0
2017-Oct-12 18:30N 45°48' W 122°51'1 1.7
2017-Oct-12 18:00N 45°48' W 122°50'3 6.4
2017-Oct-12 17:30N 45°51' W 122°48'3 4.5
2017-Oct-12 16:56N 45°48' W 122°47'3 7.0
2017-Oct-12 16:30N 45°46' W 122°46'4 7.5
2017-Oct-12 16:00N 45°42' W 122°46'4 7.0
2017-Oct-12 15:30N 45°38' W 122°47'3 6.5
2017-Oct-12 15:00N 45°35' W 122°46'2 4.7
2017-Oct-12 14:30N 45°34' W 122°44'0 0.0
2017-Oct-12 14:00N 45°34' W 122°44'0 0.0
2017-Oct-12 13:30N 45°34' W 122°44'0 0.0
2017-Oct-12 13:00N 45°34' W 122°44'0 0.0
2017-Oct-12 12:30N 45°34' W 122°44'0 0.0
2017-Oct-12 12:00N 45°34' W 122°44'0 0.0
2017-Oct-12 11:30N 45°34' W 122°44'0 0.0
2017-Oct-12 10:57N 45°34' W 122°44'0 0.0
2017-Oct-12 10:30N 45°34' W 122°44'1 1.2
2017-Oct-12 09:51N 45°34' W 122°44'1 4.3
2017-Oct-12 09:30N 45°35' W 122°46'3 5.2
2017-Oct-12 08:56N 45°38' W 122°47'2 4.9
2017-Oct-12 08:30N 45°40' W 122°46'4 4.8
2017-Oct-12 07:44N 45°44' W 122°46'1 4.7
2017-Oct-12 07:30N 45°45' W 122°46'2 3.5
2017-Oct-12 07:00N 45°46' W 122°46'2 4.7
2017-Oct-12 06:30N 45°49' W 122°48'2 4.7
2017-Oct-12 06:00N 45°51' W 122°47'2 3.0
2017-Oct-12 05:26N 45°50' W 122°49'2 3.9
2017-Oct-12 05:00N 45°48' W 122°50'1 1.8
2017-Oct-12 04:30N 45°48' W 122°51'0 0.1
2017-Oct-12 04:00N 45°48' W 122°51'0 0.0
2017-Oct-12 03:30N 45°48' W 122°51'0 0.0
2017-Oct-12 03:00N 45°48' W 122°51'0 0.0
2017-Oct-12 02:30N 45°48' W 122°51'0 0.0
2017-Oct-12 02:00N 45°48' W 122°51'0 0.0
2017-Oct-12 01:30N 45°48' W 122°51'0 0.0
2017-Oct-12 01:00N 45°48' W 122°51'2 4.2
2017-Oct-12 00:31N 45°49' W 122°49'2 2.8
2017-Oct-11 23:50N 45°51' W 122°48'1 4.2
2017-Oct-11 23:30N 45°52' W 122°47'4 8.3
2017-Oct-11 23:00N 45°48' W 122°47'6 8.1
2017-Oct-11 22:19N 45°43' W 122°46'3 8.3
2017-Oct-11 21:58N 45°40' W 122°46'3 7.0
2017-Oct-11 21:30N 45°37' W 122°47'4 7.3
2017-Oct-11 21:00N 45°34' W 122°44'0 0.0
2017-Oct-11 20:30N 45°34' W 122°44'0 0.0
2017-Oct-11 20:00N 45°34' W 122°44'0 0.0
2017-Oct-11 19:31N 45°34' W 122°44'0 0.0
2017-Oct-11 19:01N 45°34' W 122°44'0 0.0
2017-Oct-11 18:31N 45°34' W 122°44'0 0.0
2017-Oct-11 18:00N 45°34' W 122°44'0 0.0
2017-Oct-11 17:31N 45°34' W 122°44'0 0.0
2017-Oct-11 17:01N 45°34' W 122°44'15 0.9
2017-Oct-11 00:00N 45°49' W 122°48'2 5.0
2017-Oct-10 23:30N 45°51' W 122°47'0 0.7
2017-Oct-10 23:00N 45°52' W 122°48'3 6.1
2017-Oct-10 22:30N 45°49' W 122°50'1 2.3
2017-Oct-10 22:00N 45°48' W 122°50'0 0.5
2017-Oct-10 21:30N 45°48' W 122°51'0 0.0
2017-Oct-10 21:00N 45°48' W 122°51'0 0.0
2017-Oct-10 20:30N 45°48' W 122°51'0 0.0
2017-Oct-10 20:01N 45°48' W 122°51'0 0.0
2017-Oct-10 19:30N 45°48' W 122°51'0 0.0
2017-Oct-10 19:00N 45°48' W 122°51'0 0.0
2017-Oct-10 18:30N 45°48' W 122°51'0 0.0
2017-Oct-10 18:00N 45°48' W 122°51'0 0.0
2017-Oct-10 17:30N 45°48' W 122°51'0 0.0
2017-Oct-10 17:00N 45°48' W 122°51'0 0.0
2017-Oct-10 16:31N 45°48' W 122°51'0 0.0
2017-Oct-10 16:00N 45°48' W 122°51'1 2.1
2017-Oct-10 15:28N 45°49' W 122°50'3 7.2
2017-Oct-10 15:00N 45°52' W 122°48'7 6.5
2017-Oct-10 14:00N 45°45' W 122°46'4 7.7
2017-Oct-10 13:30N 45°41' W 122°46'3 6.8
2017-Oct-10 13:00N 45°38' W 122°47'4 6.8
2017-Oct-10 12:28N 45°35' W 122°45'1 3.0
2017-Oct-10 12:01N 45°34' W 122°44'0 0.0
2017-Oct-10 11:30N 45°34' W 122°44'0 0.0
2017-Oct-10 11:00N 45°34' W 122°44'0 0.0
2017-Oct-10 10:30N 45°34' W 122°44'0 0.0
2017-Oct-10 10:00N 45°34' W 122°44'0 0.0
2017-Oct-10 09:31N 45°34' W 122°44'0 0.0
2017-Oct-10 09:00N 45°34' W 122°44'0 0.0
2017-Oct-10 08:30N 45°34' W 122°44'0 0.0
2017-Oct-10 08:00N 45°34' W 122°44'1 1.5
2017-Oct-10 07:31N 45°34' W 122°44'3 5.5
2017-Oct-10 07:00N 45°36' W 122°47'2 4.9
2017-Oct-10 06:30N 45°38' W 122°49'3 4.7
2017-Oct-10 05:56N 45°40' W 122°52'2 4.4
2017-Oct-10 05:30N 45°42' W 122°52'2 4.3
2017-Oct-10 05:00N 45°44' W 122°51'2 3.7
2017-Oct-10 04:30N 45°45' W 122°49'3 4.1
2017-Oct-10 03:51N 45°48' W 122°48'1 3.5
2017-Oct-10 03:30N 45°48' W 122°50'1 1.0
2017-Oct-10 02:56N 45°48' W 122°51'0 0.2
2017-Oct-10 02:30N 45°48' W 122°51'0 0.0
2017-Oct-10 02:00N 45°48' W 122°51'0 0.0
2017-Oct-10 01:11N 45°48' W 122°51'0 0.0
2017-Oct-10 01:01N 45°48' W 122°51'0 0.0
2017-Oct-10 00:30N 45°48' W 122°51'1 1.5
2017-Oct-10 00:00N 45°48' W 122°50'3 6.2
2017-Oct-09 23:30N 45°51' W 122°48'1 1.6
2017-Oct-09 23:00N 45°51' W 122°47'4 7.8
2017-Oct-09 22:30N 45°48' W 122°47'4 8.0
2017-Oct-09 22:01N 45°44' W 122°46'4 8.2
2017-Oct-09 21:30N 45°39' W 122°46'3 6.4
2017-Oct-09 21:00N 45°36' W 122°47'3 6.6
2017-Oct-09 20:30N 45°34' W 122°44'0 0.1
2017-Oct-09 20:00N 45°34' W 122°44'0 0.0
2017-Oct-09 19:30N 45°34' W 122°44'0 0.0
2017-Oct-09 19:00N 45°34' W 122°44'0 0.0
2017-Oct-09 18:30N 45°34' W 122°44'0 0.0
2017-Oct-09 18:00N 45°34' W 122°44'0 0.0
2017-Oct-09 17:30N 45°34' W 122°44'2 3.8
2017-Oct-09 17:00N 45°35' W 122°46'3 5.4
2017-Oct-09 16:30N 45°37' W 122°48'  
Track history (hours):
 
Tides and Currents Weather Stations Pressure Air Temp Water Temp Dewpoint Dewpoint Depression Visibility Wind Speed Wind Dir Waves Ship Positions

Vicki B

Last reported at 2017-Oct-19 16:00 UTC. Time now 2017-Oct-19 16:27 UTC.
Position N 45°44' W 122°50'.

Type: Towing. MMSI: 367681630.

Date/timePositionNaut miles runAvg speedWind from/ knotsBaromVisibWave heightAir tempDewpointWater temp
2017-Oct-19 16:00N 45°44' W 122°50'2 3.7
2017-Oct-19 15:30N 45°46' W 122°49'2 4.0
2017-Oct-19 15:01N 45°48' W 122°48'1 2.9
2017-Oct-19 14:30N 45°48' W 122°50'0 0.7
2017-Oct-19 13:52N 45°48' W 122°51'0 0.0
2017-Oct-19 13:30N 45°48' W 122°51'0 0.0
2017-Oct-19 13:00N 45°48' W 122°51'0 0.0
2017-Oct-19 12:31N 45°48' W 122°51'0 0.0
2017-Oct-19 12:01N 45°48' W 122°51'0 0.0
2017-Oct-19 11:30N 45°48' W 122°51'0 0.0
2017-Oct-19 11:00N 45°48' W 122°51'0 0.1
2017-Oct-19 10:30N 45°48' W 122°51'2 3.4
2017-Oct-19 09:57N 45°49' W 122°49'3 6.0
2017-Oct-19 09:31N 45°51' W 122°47'4 7.6
2017-Oct-19 09:00N 45°48' W 122°47'4 8.1
2017-Oct-19 08:30N 45°44' W 122°46'4 8.3
2017-Oct-19 08:00N 45°39' W 122°46'3 6.7
2017-Oct-19 07:30N 45°36' W 122°47'3 6.1
2017-Oct-19 07:00N 45°34' W 122°44'0 0.1
2017-Oct-19 06:30N 45°34' W 122°44'0 0.0
2017-Oct-19 06:01N 45°34' W 122°44'0 0.0
2017-Oct-19 05:30N 45°34' W 122°44'0 0.0
2017-Oct-19 04:51N 45°34' W 122°44'0 0.0
2017-Oct-19 04:30N 45°34' W 122°44'0 0.0
2017-Oct-19 04:00N 45°34' W 122°44'0 0.0
2017-Oct-19 03:30N 45°34' W 122°44'0 0.0
2017-Oct-19 03:00N 45°34' W 122°44'2 3.7
2017-Oct-19 02:30N 45°35' W 122°46'3 5.0
2017-Oct-19 01:59N 45°37' W 122°48'2 5.0
2017-Oct-19 01:30N 45°39' W 122°50'2 4.8
2017-Oct-19 01:00N 45°41' W 122°52'3 5.0
2017-Oct-19 00:30N 45°44' W 122°52'2 4.4
2017-Oct-19 00:00N 45°45' W 122°49'3 0.6
2017-Oct-18 18:55N 45°48' W 122°49'0 0.1
2017-Oct-18 18:30N 45°48' W 122°49'1 1.4
2017-Oct-18 18:00N 45°49' W 122°50'3 5.7
2017-Oct-18 17:30N 45°52' W 122°48'4 7.2
2017-Oct-18 17:00N 45°48' W 122°47'4 8.2
2017-Oct-18 16:30N 45°44' W 122°46'5 8.1
2017-Oct-18 15:52N 45°39' W 122°46'3 6.4
2017-Oct-18 15:26N 45°36' W 122°47'3 7.4
2017-Oct-18 15:00N 45°34' W 122°44'0 0.1
2017-Oct-18 14:01N 45°34' W 122°44'0 0.0
2017-Oct-18 13:31N 45°34' W 122°44'0 0.0
2017-Oct-18 13:01N 45°34' W 122°44'0 0.0
2017-Oct-18 12:31N 45°34' W 122°44'0 0.0
2017-Oct-18 12:01N 45°34' W 122°44'0 0.0
2017-Oct-18 11:31N 45°34' W 122°44'0 0.0
2017-Oct-18 11:00N 45°34' W 122°44'0 0.0
2017-Oct-18 10:30N 45°34' W 122°44'2 4.5
2017-Oct-18 10:01N 45°35' W 122°46'3 5.3
2017-Oct-18 09:30N 45°37' W 122°48'4 5.0
2017-Oct-18 08:48N 45°40' W 122°51'2 4.6
2017-Oct-18 08:18N 45°42' W 122°52'1 4.5
2017-Oct-18 08:00N 45°44' W 122°52'2 3.8
2017-Oct-18 07:30N 45°45' W 122°50'2 3.5
2017-Oct-18 07:00N 45°46' W 122°49'2 3.4
2017-Oct-18 06:30N 45°48' W 122°49'1 2.2
2017-Oct-18 05:51N 45°48' W 122°51'0 0.2
2017-Oct-18 05:30N 45°48' W 122°51'0 0.0
2017-Oct-18 05:00N 45°48' W 122°51'0 0.0
2017-Oct-18 04:30N 45°48' W 122°51'0 0.0
2017-Oct-18 04:00N 45°48' W 122°51'0 0.0
2017-Oct-18 03:30N 45°48' W 122°51'0 0.0
2017-Oct-18 03:00N 45°48' W 122°51'1 1.0
2017-Oct-18 02:31N 45°48' W 122°50'2 4.7
2017-Oct-18 02:01N 45°50' W 122°49'1 1.7
2017-Oct-18 01:30N 45°50' W 122°47'4 7.7
2017-Oct-18 01:00N 45°46' W 122°46'4 7.4
2017-Oct-18 00:30N 45°43' W 122°46'3 6.8
2017-Oct-18 00:00N 45°39' W 122°45'1 2.8
2017-Oct-17 23:29N 45°39' W 122°44'0 0.0
2017-Oct-17 23:00N 45°39' W 122°44'0 0.0
2017-Oct-17 22:31N 45°39' W 122°44'0 0.0
2017-Oct-17 22:01N 45°39' W 122°44'0 0.0
2017-Oct-17 21:30N 45°39' W 122°44'0 0.0
2017-Oct-17 21:00N 45°39' W 122°44'0 0.0
2017-Oct-17 20:30N 45°39' W 122°44'0 0.0
2017-Oct-17 20:01N 45°39' W 122°44'2 3.2
2017-Oct-17 19:30N 45°39' W 122°46'2 4.9
2017-Oct-17 19:01N 45°42' W 122°46'2 4.8
2017-Oct-17 18:30N 45°44' W 122°46'2 4.7
2017-Oct-17 18:01N 45°47' W 122°46'2 4.6
2017-Oct-17 17:30N 45°49' W 122°48'2 4.5
2017-Oct-17 17:00N 45°51' W 122°47'1 2.1
2017-Oct-17 16:30N 45°50' W 122°48'1 3.0
2017-Oct-17 16:00N 45°49' W 122°50'1 2.6
2017-Oct-17 15:31N 45°48' W 122°50'0 0.7
2017-Oct-17 15:00N 45°48' W 122°51'0 0.0
2017-Oct-17 14:30N 45°48' W 122°51'0 0.0
2017-Oct-17 14:00N 45°48' W 122°51'0 0.0
2017-Oct-17 13:30N 45°48' W 122°51'0 0.0
2017-Oct-17 13:00N 45°48' W 122°51'0 0.0
2017-Oct-17 12:30N 45°48' W 122°51'0 0.0
2017-Oct-17 12:00N 45°48' W 122°51'0 0.0
2017-Oct-17 11:30N 45°48' W 122°51'0 0.0
2017-Oct-17 11:00N 45°48' W 122°51'0 0.0
2017-Oct-17 10:30N 45°48' W 122°51'0 0.0
2017-Oct-17 10:00N 45°48' W 122°51'0 0.0
2017-Oct-17 09:30N 45°48' W 122°51'0 0.0
2017-Oct-17 09:00N 45°48' W 122°51'0 0.0
2017-Oct-17 08:30N 45°48' W 122°51'0 0.0
2017-Oct-17 08:00N 45°48' W 122°51'0 0.0
2017-Oct-17 07:30N 45°48' W 122°51'0 0.1
2017-Oct-17 07:00N 45°48' W 122°51'2 3.9
2017-Oct-17 06:30N 45°49' W 122°49'3 5.3
2017-Oct-17 06:00N 45°52' W 122°48'4 7.8
2017-Oct-17 05:30N 45°48' W 122°47'4 8.2
2017-Oct-17 05:00N 45°44' W 122°46'4 8.1
2017-Oct-17 04:30N 45°40' W 122°46'4 8.0
2017-Oct-17 04:00N 45°37' W 122°41'4 8.3
2017-Oct-17 03:30N 45°36' W 122°35'4 7.7
2017-Oct-17 03:00N 45°35' W 122°30'3 5.3
2017-Oct-17 02:30N 45°34' W 122°27'0 0.0
2017-Oct-17 02:00N 45°34' W 122°27'0 0.0
2017-Oct-17 01:30N 45°34' W 122°27'0 0.0
2017-Oct-17 01:00N 45°34' W 122°27'0 0.0
2017-Oct-17 00:30N 45°34' W 122°27'0 0.0
2017-Oct-17 00:00N 45°34' W 122°27'0 0.0
2017-Oct-16 23:30N 45°34' W 122°27'2 2.9
2017-Oct-16 22:55N 45°35' W 122°29'2 5.0
2017-Oct-16 22:30N 45°35' W 122°32'2 5.0
2017-Oct-16 22:00N 45°36' W 122°35'3 5.4
2017-Oct-16 21:30N 45°37' W 122°39'3 5.2
2017-Oct-16 21:00N 45°38' W 122°42'2 3.6
2017-Oct-16 20:30N 45°39' W 122°44'3 5.2
2017-Oct-16 20:00N 45°41' W 122°46'3 5.3
2017-Oct-16 19:30N 45°44' W 122°46'3 5.0
2017-Oct-16 19:00N 45°46' W 122°46'2 4.8
2017-Oct-16 18:30N 45°48' W 122°47'2 4.5
2017-Oct-16 18:00N 45°50' W 122°47'2 4.1
2017-Oct-16 17:30N 45°53' W 122°48'2 4.9
2017-Oct-16 17:00N 45°50' W 122°49'2 4.4
2017-Oct-16 16:30N 45°48' W 122°50'1 1.8
2017-Oct-16 16:00N 45°48' W 122°51'2 0.1
2017-Oct-15 23:57N 45°49' W 122°49'3 5.5
2017-Oct-15 23:30N 45°52' W 122°47'4 7.1
2017-Oct-15 23:00N 45°48' W 122°47'3 6.8
2017-Oct-15 22:30N 45°45' W 122°46'3 6.5
2017-Oct-15 22:00N 45°42' W 122°46'3 6.2
2017-Oct-15 21:30N 45°39' W 122°44'1 1.0
2017-Oct-15 21:00N 45°39' W 122°44'0 0.0
2017-Oct-15 20:30N 45°39' W 122°44'0 0.0
2017-Oct-15 20:00N 45°39' W 122°44'0 0.0
2017-Oct-15 19:24N 45°39' W 122°44'0 0.0
2017-Oct-15 19:00N 45°39' W 122°44'0 0.0
2017-Oct-15 18:30N 45°39' W 122°44'0 0.0
2017-Oct-15 18:00N 45°39' W 122°44'0 0.0
2017-Oct-15 17:30N 45°39' W 122°44'1 2.9
2017-Oct-15 17:00N 45°39' W 122°45'2 4.7
2017-Oct-15 16:30N 45°42' W 122°46'2 4.6
2017-Oct-15 16:00N 45°44' W 122°46'2 4.7
2017-Oct-15 15:30N 45°46' W 122°46'2 4.7
2017-Oct-15 15:00N 45°48' W 122°47'4 3.3
2017-Oct-15 13:54N 45°52' W 122°48'2 6.2
2017-Oct-15 13:30N 45°50' W 122°49'2 3.8
2017-Oct-15 13:00N 45°48' W 122°50'1 1.3
2017-Oct-15 12:30N 45°48' W 122°51'0 0.0
2017-Oct-15 12:00N 45°48' W 122°51'0 0.0
2017-Oct-15 11:30N 45°48' W 122°51'0 0.0
2017-Oct-15 11:00N 45°48' W 122°51'0 0.0
2017-Oct-15 10:30N 45°48' W 122°51'0 0.0
2017-Oct-15 10:00N 45°48' W 122°51'0 0.0
2017-Oct-15 09:30N 45°48' W 122°51'0 0.0
2017-Oct-15 09:01N 45°48' W 122°51'0 0.0
2017-Oct-15 08:30N 45°48' W 122°51'0 0.0
2017-Oct-15 08:01N 45°48' W 122°51'0 0.0
2017-Oct-15 07:30N 45°48' W 122°51'0 0.0
2017-Oct-15 07:00N 45°48' W 122°51'0 0.0
2017-Oct-15 06:30N 45°48' W 122°51'0 0.1
2017-Oct-15 06:00N 45°48' W 122°51'2 4.8
2017-Oct-15 05:30N 45°50' W 122°49'1 2.6
2017-Oct-15 05:00N 45°50' W 122°47'12 7.8
2017-Oct-15 03:26N 45°39' W 122°44'0 0.0
2017-Oct-15 03:00N 45°39' W 122°44'0 0.0
2017-Oct-15 02:30N 45°39' W 122°44'0 0.0
2017-Oct-15 01:40N 45°39' W 122°44'0 0.0
2017-Oct-15 01:20N 45°39' W 122°44'0 0.0
2017-Oct-15 01:00N 45°39' W 122°44'0 0.0
2017-Oct-15 00:30N 45°39' W 122°44'0 0.0
2017-Oct-15 00:00N 45°39' W 122°44'0 0.0
2017-Oct-14 23:30N 45°39' W 122°44'2 3.0
2017-Oct-14 22:54N 45°40' W 122°46'2 5.1
2017-Oct-14 22:30N 45°42' W 122°46'3 5.3
2017-Oct-14 22:00N 45°44' W 122°46'3 5.6
2017-Oct-14 21:30N 45°47' W 122°47'3 5.8
2017-Oct-14 21:00N 45°50' W 122°47'1 1.5
2017-Oct-14 20:30N 45°51' W 122°48'2 4.8
2017-Oct-14 20:00N 45°48' W 122°49'1 2.3
2017-Oct-14 19:30N 45°48' W 122°51'0 0.1
2017-Oct-14 19:00N 45°48' W 122°51'0 0.0
2017-Oct-14 18:30N 45°48' W 122°51'0 0.0
2017-Oct-14 18:00N 45°48' W 122°51'0 0.0
2017-Oct-14 17:30N 45°48' W 122°51'0 0.1
2017-Oct-14 17:00N 45°48' W 122°51'2 3.8
2017-Oct-14 16:30N 45°49' W 122°49'3 5.8
2017-Oct-14 16:00N 45°52' W 122°48'5 9.3
2017-Oct-14 15:30N 45°47' W 122°47'1 2.7
2017-Oct-14 15:00N 45°46' W 122°46'4 8.2
2017-Oct-14 14:30N 45°42' W 122°46'3 7.0
2017-Oct-14 14:00N 45°38' W 122°47'3 6.6
2017-Oct-14 13:30N 45°35' W 122°46'2 3.6
2017-Oct-14 13:01N 45°34' W 122°44'0 0.0
2017-Oct-14 12:31N 45°34' W 122°44'0 0.0
2017-Oct-14 12:01N 45°34' W 122°44'0 0.0
2017-Oct-14 11:30N 45°34' W 122°44'0 0.0
2017-Oct-14 11:01N 45°34' W 122°44'0 0.0
2017-Oct-14 10:30N 45°34' W 122°44'0 0.0
2017-Oct-14 10:00N 45°34' W 122°44'0 0.0
2017-Oct-14 09:31N 45°34' W 122°44'0 0.0
2017-Oct-14 09:00N 45°34' W 122°44'0 0.2
2017-Oct-14 08:30N 45°34' W 122°44'1 2.8
2017-Oct-14 08:01N 45°35' W 122°45'3 5.6
2017-Oct-14 07:30N 45°37' W 122°48'3 5.2
2017-Oct-14 07:01N 45°39' W 122°50'3 5.0
2017-Oct-14 06:30N 45°41' W 122°52'3 5.4
2017-Oct-14 06:00N 45°44' W 122°51'2 4.5
2017-Oct-14 05:30N 45°46' W 122°49'3 5.1
2017-Oct-14 05:00N 45°48' W 122°48'2 3.2
2017-Oct-14 04:27N 45°48' W 122°51'0 0.2
2017-Oct-14 04:00N 45°48' W 122°51'0 0.0
2017-Oct-14 03:21N 45°48' W 122°51'0 0.0
2017-Oct-14 03:00N 45°48' W 122°51'0 0.0
2017-Oct-14 02:30N 45°48' W 122°51'0 0.0
2017-Oct-14 02:00N 45°48' W 122°51'0 0.0
2017-Oct-14 01:30N 45°48' W 122°51'0 0.0
2017-Oct-14 01:00N 45°48' W 122°51'0 0.0
2017-Oct-14 00:30N 45°48' W 122°51'0 0.0
2017-Oct-14 00:00N 45°48' W 122°51'0 0.0
2017-Oct-13 23:30N 45°48' W 122°51'2 4.5
2017-Oct-13 23:00N 45°50' W 122°49'2 3.6
2017-Oct-13 22:30N 45°51' W 122°47'4 7.2
2017-Oct-13 22:00N 45°47' W 122°47'6 7.7
2017-Oct-13 21:16N 45°41' W 122°46'2 7.3
2017-Oct-13 21:00N 45°40' W 122°46'3 6.6
2017-Oct-13 20:30N 45°36' W 122°47'3 6.7
2017-Oct-13 20:01N 45°34' W 122°44'0 0.8
2017-Oct-13 19:30N 45°34' W 122°44'0 0.0
2017-Oct-13 19:01N 45°34' W 122°44'0 0.0
2017-Oct-13 18:30N 45°34' W 122°44'0 0.0
2017-Oct-13 18:00N 45°34' W 122°44'0 0.0
2017-Oct-13 17:30N 45°34' W 122°44'0 0.0
2017-Oct-13 17:01N 45°34' W 122°44'0 0.0
2017-Oct-13 16:31N 45°34' W 122°44'0 0.0
2017-Oct-13 16:01N 45°34' W 122°44'1 2.6
2017-Oct-13 15:30N 45°35' W 122°45'3 5.3
2017-Oct-13 15:01N 45°37' W 122°47'2 4.8
2017-Oct-13 14:31N 45°38' W 122°49'3 4.6
2017-Oct-13 13:51N 45°41' W 122°52'2 4.6
2017-Oct-13 13:30N 45°42' W 122°52'3 3.9
2017-Oct-13 12:50N 45°45' W 122°50'1 3.5
2017-Oct-13 12:30N 45°46' W 122°49'2 3.7
2017-Oct-13 11:56N 45°48' W 122°48'1 2.8
2017-Oct-13 11:31N 45°48' W 122°50'1 1.6
2017-Oct-13 11:01N 45°48' W 122°51'0 0.0
2017-Oct-13 10:30N 45°48' W 122°51'0 0.0
2017-Oct-13 10:00N 45°48' W 122°51'0 0.0
2017-Oct-13 09:15N 45°48' W 122°51'0 0.0
2017-Oct-13 09:00N 45°48' W 122°51'0 0.0
2017-Oct-13 08:31N 45°48' W 122°51'1 2.3
2017-Oct-13 07:53N 45°49' W 122°50'2 5.9
2017-Oct-13 07:30N 45°51' W 122°48'2 3.3
2017-Oct-13 06:59N 45°49' W 122°48'4 7.5
2017-Oct-13 06:30N 45°46' W 122°46'4 7.3
2017-Oct-13 05:55N 45°41' W 122°46'3 6.5
2017-Oct-13 05:31N 45°39' W 122°45'1 2.0
2017-Oct-13 05:01N 45°39' W 122°44'0 0.0
2017-Oct-13 04:30N 45°39' W 122°44'0 0.0
2017-Oct-13 04:00N 45°39' W 122°44'0 0.0
2017-Oct-13 03:30N 45°39' W 122°44'0 0.0
2017-Oct-13 03:00N 45°39' W 122°44'0 0.0
2017-Oct-13 02:21N 45°39' W 122°44'0 0.0
2017-Oct-13 02:00N 45°39' W 122°44'0 0.0
2017-Oct-13 01:30N 45°39' W 122°44'0 0.5
2017-Oct-13 01:00N 45°39' W 122°44'2 4.4
2017-Oct-13 00:30N 45°40' W 122°46'2 4.8
2017-Oct-13 00:00N 45°43' W 122°46'2 4.8
2017-Oct-12 23:30N 45°45' W 122°46'2 4.9
2017-Oct-12 23:00N 45°47' W 122°47'2 4.7
2017-Oct-12 22:30N 45°50' W 122°47'2 3.0
2017-Oct-12 22:00N 45°51' W 122°48'3 6.1
2017-Oct-12 21:30N 45°49' W 122°50'1 2.4
2017-Oct-12 21:00N 45°48' W 122°51'0 0.1
2017-Oct-12 20:30N 45°48' W 122°51'0 0.0
2017-Oct-12 20:00N 45°48' W 122°51'0 0.0
2017-Oct-12 19:30N 45°48' W 122°51'0 0.0
2017-Oct-12 19:00N 45°48' W 122°51'0 0.0
2017-Oct-12 18:30N 45°48' W 122°51'1 1.7
2017-Oct-12 18:00N 45°48' W 122°50'3 6.4
2017-Oct-12 17:30N 45°51' W 122°48'3 4.5
2017-Oct-12 16:56N 45°48' W 122°47'3 7.0
2017-Oct-12 16:30N 45°46' W 122°46'4 7.5
2017-Oct-12 16:00N 45°42' W 122°46'4 7.0
2017-Oct-12 15:30N 45°38' W 122°47'3 6.5
2017-Oct-12 15:00N 45°35' W 122°46'2 4.7
2017-Oct-12 14:30N 45°34' W 122°44'0 0.0
2017-Oct-12 14:00N 45°34' W 122°44'0 0.0
2017-Oct-12 13:30N 45°34' W 122°44'0 0.0
2017-Oct-12 13:00N 45°34' W 122°44'0 0.0
2017-Oct-12 12:30N 45°34' W 122°44'0 0.0
2017-Oct-12 12:00N 45°34' W 122°44'0 0.0
2017-Oct-12 11:30N 45°34' W 122°44'0 0.0
2017-Oct-12 10:57N 45°34' W 122°44'0 0.0
2017-Oct-12 10:30N 45°34' W 122°44'1 1.2
2017-Oct-12 09:51N 45°34' W 122°44'1 4.3
2017-Oct-12 09:30N 45°35' W 122°46'3 5.2
2017-Oct-12 08:56N 45°38' W 122°47'2 4.9
2017-Oct-12 08:30N 45°40' W 122°46'4 4.8
2017-Oct-12 07:44N 45°44' W 122°46'1 4.7
2017-Oct-12 07:30N 45°45' W 122°46'2 3.5
2017-Oct-12 07:00N 45°46' W 122°46'2 4.7
2017-Oct-12 06:30N 45°49' W 122°48'2 4.7
2017-Oct-12 06:00N 45°51' W 122°47'2 3.0
2017-Oct-12 05:26N 45°50' W 122°49'2 3.9
2017-Oct-12 05:00N 45°48' W 122°50'1 1.8
2017-Oct-12 04:30N 45°48' W 122°51'0 0.1
2017-Oct-12 04:00N 45°48' W 122°51'0 0.0
2017-Oct-12 03:30N 45°48' W 122°51'0 0.0
2017-Oct-12 03:00N 45°48' W 122°51'0 0.0
2017-Oct-12 02:30N 45°48' W 122°51'0 0.0
2017-Oct-12 02:00N 45°48' W 122°51'0 0.0
2017-Oct-12 01:30N 45°48' W 122°51'0 0.0
2017-Oct-12 01:00N 45°48' W 122°51'2 4.2
2017-Oct-12 00:31N 45°49' W 122°49'2 2.8
2017-Oct-11 23:50N 45°51' W 122°48'1 4.2
2017-Oct-11 23:30N 45°52' W 122°47'4 8.3
2017-Oct-11 23:00N 45°48' W 122°47'6 8.1
2017-Oct-11 22:19N 45°43' W 122°46'3 8.3
2017-Oct-11 21:58N 45°40' W 122°46'3 7.0
2017-Oct-11 21:30N 45°37' W 122°47'4 7.3
2017-Oct-11 21:00N 45°34' W 122°44'0 0.0
2017-Oct-11 20:30N 45°34' W 122°44'0 0.0
2017-Oct-11 20:00N 45°34' W 122°44'0 0.0
2017-Oct-11 19:31N 45°34' W 122°44'0 0.0
2017-Oct-11 19:01N 45°34' W 122°44'0 0.0
2017-Oct-11 18:31N 45°34' W 122°44'0 0.0
2017-Oct-11 18:00N 45°34' W 122°44'0 0.0
2017-Oct-11 17:31N 45°34' W 122°44'0 0.0
2017-Oct-11 17:01N 45°34' W 122°44'15 0.9
2017-Oct-11 00:00N 45°49' W 122°48'2 5.0
2017-Oct-10 23:30N 45°51' W 122°47'0 0.7
2017-Oct-10 23:00N 45°52' W 122°48'3 6.1
2017-Oct-10 22:30N 45°49' W 122°50'1 2.3
2017-Oct-10 22:00N 45°48' W 122°50'0 0.5
2017-Oct-10 21:30N 45°48' W 122°51'0 0.0
2017-Oct-10 21:00N 45°48' W 122°51'0 0.0
2017-Oct-10 20:30N 45°48' W 122°51'0 0.0
2017-Oct-10 20:01N 45°48' W 122°51'0 0.0
2017-Oct-10 19:30N 45°48' W 122°51'0 0.0
2017-Oct-10 19:00N 45°48' W 122°51'0 0.0
2017-Oct-10 18:30N 45°48' W 122°51'0 0.0
2017-Oct-10 18:00N 45°48' W 122°51'0 0.0
2017-Oct-10 17:30N 45°48' W 122°51'0 0.0
2017-Oct-10 17:00N 45°48' W 122°51'0 0.0
2017-Oct-10 16:31N 45°48' W 122°51'0 0.0
2017-Oct-10 16:00N 45°48' W 122°51'1 2.1
2017-Oct-10 15:28N 45°49' W 122°50'3 7.2
2017-Oct-10 15:00N 45°52' W 122°48'7 6.5
2017-Oct-10 14:00N 45°45' W 122°46'4 7.7
2017-Oct-10 13:30N 45°41' W 122°46'3 6.8
2017-Oct-10 13:00N 45°38' W 122°47'4 6.8
2017-Oct-10 12:28N 45°35' W 122°45'1 3.0
2017-Oct-10 12:01N 45°34' W 122°44'0 0.0
2017-Oct-10 11:30N 45°34' W 122°44'0 0.0
2017-Oct-10 11:00N 45°34' W 122°44'0 0.0
2017-Oct-10 10:30N 45°34' W 122°44'0 0.0
2017-Oct-10 10:00N 45°34' W 122°44'0 0.0
2017-Oct-10 09:31N 45°34' W 122°44'0 0.0
2017-Oct-10 09:00N 45°34' W 122°44'0 0.0
2017-Oct-10 08:30N 45°34' W 122°44'0 0.0
2017-Oct-10 08:00N 45°34' W 122°44'1 1.5
2017-Oct-10 07:31N 45°34' W 122°44'3 5.5
2017-Oct-10 07:00N 45°36' W 122°47'2 4.9
2017-Oct-10 06:30N 45°38' W 122°49'3 4.7
2017-Oct-10 05:56N 45°40' W 122°52'2 4.4
2017-Oct-10 05:30N 45°42' W 122°52'2 4.3
2017-Oct-10 05:00N 45°44' W 122°51'2 3.7
2017-Oct-10 04:30N 45°45' W 122°49'3 4.1
2017-Oct-10 03:51N 45°48' W 122°48'1 3.5
2017-Oct-10 03:30N 45°48' W 122°50'1 1.0
2017-Oct-10 02:56N 45°48' W 122°51'0 0.2
2017-Oct-10 02:30N 45°48' W 122°51'0 0.0
2017-Oct-10 02:00N 45°48' W 122°51'0 0.0
2017-Oct-10 01:11N 45°48' W 122°51'0 0.0
2017-Oct-10 01:01N 45°48' W 122°51'0 0.0
2017-Oct-10 00:30N 45°48' W 122°51'1 1.5
2017-Oct-10 00:00N 45°48' W 122°50'3 6.2
2017-Oct-09 23:30N 45°51' W 122°48'1 1.6
2017-Oct-09 23:00N 45°51' W 122°47'4 7.8
2017-Oct-09 22:30N 45°48' W 122°47'4 8.0
2017-Oct-09 22:01N 45°44' W 122°46'4 8.2
2017-Oct-09 21:30N 45°39' W 122°46'3 6.4
2017-Oct-09 21:00N 45°36' W 122°47'3 6.6
2017-Oct-09 20:30N 45°34' W 122°44'0 0.1
2017-Oct-09 20:00N 45°34' W 122°44'0 0.0
2017-Oct-09 19:30N 45°34' W 122°44'0 0.0
2017-Oct-09 19:00N 45°34' W 122°44'0 0.0
2017-Oct-09 18:30N 45°34' W 122°44'0 0.0
2017-Oct-09 18:00N 45°34' W 122°44'0 0.0
2017-Oct-09 17:30N 45°34' W 122°44'2 3.8
2017-Oct-09 17:00N 45°35' W 122°46'3 5.4
2017-Oct-09 16:30N 45°37' W 122°48'  

Dump ship's entire track history